Aviation Digital Data Service (ADDS)

Output produced by METARs form (0951 UTC 23 July 2019)
found at http://www.aviationweather.gov/metar/data/
 
Forecast for: FNLU (LUANDA/4 DE FEVE, AO)
Text: TAF FNLU 230500Z 2306/2412 13005KT 8000 FEW018 SCT020
Forecast period: 0600 UTC 23 July 2019 to 1200 UTC 24 July 2019
Forecast type: FROM: standard forecast or significant change
Winds: from the SE (130 degrees) at 6 MPH (5 knots; 2.6 m/s)
Visibility: 5 miles (8 km)
Ceiling: at least 12,000 feet AGL
Clouds: few clouds at 1800 feet AGL
scattered clouds at 2000 feet AGL
Weather: no significant weather forecast for this period
Text: TEMPO 2313/2318 27009KT CAVOK
Forecast period: 1300 to 1800 UTC 23 July 2019
Forecast type: TEMPORARY: The following changes expected for less than half the time period
Winds: from the W (270 degrees) at 10 MPH (9 knots; 4.6 m/s)
Visibility: 6 or more miles 10+ km)
Ceiling: unknown
Clouds: missing
Weather: NSW  (no significant weather)